Time;durP1;ratioP1;P1;durP2;ratioP2;P2;SDS_P1;SDS_P2;PMS_P1;PMS_P2;Temp;Humidity;BMP_temperature;BMP_pressure;BME280_temperature;BME280_humidity;BME280_pressure;Samples;Min_cycle;Max_cycle;Signal;HPM_P1;HPM_P2
2022/01/20 00:03:23;;;;;;;58.38;20.58;;;;;;;-3.32;83.50;100858.56;4485529;31;20084;-67
2022/01/20 00:27:34;;;;;;;46.25;18.85;;;;;;;-4.11;90.22;100874.13;4485305;31;20200;-68
2022/01/20 00:37:46;;;;;;;52.92;19.50;;;;;;;-3.80;85.88;100856.88;4485136;31;20121;-67
2022/01/20 00:40:18;;;;;;;48.72;18.87;;;;;;;-4.22;90.56;100858.91;4485214;31;20119;-67
2022/01/20 00:42:45;;;;;;;55.60;19.35;;;;;;;-4.31;92.08;100867.00;4485082;31;20204;-67
2022/01/20 00:45:15;;;;;;;45.47;18.33;;;;;;;-4.27;91.42;100865.50;4484990;31;20141;-67
2022/01/20 00:47:42;;;;;;;48.13;17.00;;;;;;;-4.22;90.37;100872.66;4484928;31;20088;-67
2022/01/20 00:50:11;;;;;;;51.90;18.08;;;;;;;-3.92;88.50;100873.44;4484834;31;20096;-67
2022/01/20 00:52:38;;;;;;;49.75;18.67;;;;;;;-3.88;87.30;100874.50;4484855;31;20168;-67
2022/01/20 00:55:06;;;;;;;46.05;17.25;;;;;;;-3.88;86.83;100874.50;4486551;31;20123;-67
2022/01/20 00:57:34;;;;;;;49.55;17.67;;;;;;;-3.78;87.07;100879.34;4486831;31;20486;-68
2022/01/20 01:00:07;;;;;;;53.00;17.70;;;;;;;-3.77;85.77;100875.94;4486706;31;20099;-68
2022/01/20 01:02:35;;;;;;;49.35;17.73;;;;;;;-3.71;85.24;100872.78;4486970;31;20232;-68
2022/01/20 01:05:04;;;;;;;54.70;17.58;;;;;;;-3.73;86.54;100870.16;4486750;31;20110;-67
2022/01/20 01:07:47;;;;;;;44.90;16.25;;;;;;;-3.78;85.86;100874.19;4486749;31;20156;-68
2022/01/20 01:10:25;;;;;;;40.47;16.60;;;;;;;-3.68;85.38;100872.97;4486959;31;20423;-67
2022/01/20 01:13:00;;;;;;;40.10;16.23;;;;;;;-3.75;85.24;100876.00;4486798;31;20464;-68
2022/01/20 01:15:33;;;;;;;47.45;16.35;;;;;;;-3.69;84.29;100878.94;4486756;31;20782;-67
2022/01/20 01:23:42;;;;;;;40.97;16.62;;;;;;;-3.69;85.03;100876.34;4486764;31;20789;-67
2022/01/20 01:26:13;;;;;;;55.22;16.62;;;;;;;-3.75;85.38;100882.03;4486687;31;20534;-67
2022/01/20 01:28:41;;;;;;;36.13;15.27;;;;;;;-3.62;84.41;100869.03;4486639;31;20205;-68
2022/01/20 01:33:50;;;;;;;46.22;15.95;;;;;;;-3.42;85.63;100861.47;4486868;31;20122;-67
2022/01/20 01:36:22;;;;;;;46.45;16.02;;;;;;;-3.31;85.90;100859.44;4486825;31;20106;-67
2022/01/20 01:38:50;;;;;;;35.70;15.18;;;;;;;-3.00;84.01;100851.56;4486950;31;20514;-67
2022/01/20 01:41:28;;;;;;;33.85;15.00;;;;;;;-2.94;85.57;100857.00;4486830;31;20119;-68
2022/01/20 01:43:57;;;;;;;40.17;14.95;;;;;;;-2.80;86.03;100834.50;4486958;31;20167;-68
2022/01/20 01:46:25;;;;;;;38.40;16.40;;;;;;;-2.79;86.67;100828.50;4486467;31;20092;-68
2022/01/20 01:48:53;;;;;;;41.95;16.12;;;;;;;-2.60;84.66;100830.31;4486646;31;20152;-67
2022/01/20 01:51:21;;;;;;;44.35;16.35;;;;;;;-2.46;83.88;100824.09;4486372;31;20092;-68
2022/01/20 01:53:49;;;;;;;39.47;15.98;;;;;;;-2.47;84.88;100809.44;4486590;31;20479;-68
2022/01/20 01:56:18;;;;;;;48.90;18.73;;;;;;;-2.45;84.43;100802.66;4486575;31;20427;-68
2022/01/20 01:58:46;;;;;;;52.70;21.00;;;;;;;-2.63;84.61;100812.09;4486635;31;20118;-68
2022/01/20 02:01:14;;;;;;;56.28;20.12;;;;;;;-2.66;85.82;100795.66;4486549;31;20096;-68
2022/01/20 02:03:47;;;;;;;60.08;20.70;;;;;;;-2.46;83.91;100804.34;4486606;31;20131;-68
2022/01/20 02:18:10;;;;;;;49.38;17.92;;;;;;;-2.13;83.89;100780.91;4466106;31;20110;-68
2022/01/20 02:20:38;;;;;;;54.85;19.55;;;;;;;-2.24;84.58;100767.50;4486493;31;20144;-67
2022/01/20 02:23:05;;;;;;;52.95;18.15;;;;;;;-2.08;83.45;100758.78;4486535;31;20115;-68
2022/01/20 02:25:36;;;;;;;61.20;20.17;;;;;;;-1.95;81.72;100762.75;4486433;31;20092;-68
2022/01/20 02:28:06;;;;;;;51.85;17.50;;;;;;;-2.13;83.15;100741.28;4486112;31;20379;-68
2022/01/20 02:30:35;;;;;;;43.53;17.23;;;;;;;-2.21;84.71;100741.84;4486229;31;20104;-68
2022/01/20 02:33:05;;;;;;;47.10;17.98;;;;;;;-2.03;82.73;100736.59;4486148;31;20501;-68
2022/01/20 02:35:45;;;;;;;51.55;19.35;;;;;;;-1.98;81.75;100735.13;4486323;31;20142;-68
2022/01/20 02:38:30;;;;;;;56.83;20.95;;;;;;;-1.89;81.49;100736.34;4486281;31;20189;-68
2022/01/20 02:46:37;;;;;;;42.25;16.15;;;;;;;-2.13;83.96;100730.97;4486178;31;20096;-68
2022/01/20 02:49:07;;;;;;;47.83;16.90;;;;;;;-1.94;82.51;100720.66;4486370;31;20080;-68
2022/01/20 02:51:35;;;;;;;49.28;18.20;;;;;;;-2.08;83.00;100714.87;4486202;31;20793;-68
2022/01/20 02:54:08;;;;;;;48.85;17.60;;;;;;;-2.25;85.01;100710.66;4486290;31;20118;-68
2022/01/20 02:56:35;;;;;;;48.40;17.42;;;;;;;-2.44;86.75;100733.06;4486174;31;20486;-68
2022/01/20 02:59:03;;;;;;;58.75;18.20;;;;;;;-2.41;86.67;100712.53;4486199;31;20092;-68
2022/01/20 03:01:31;;;;;;;44.72;16.60;;;;;;;-2.56;88.08;100704.09;4486104;31;20091;-68
2022/01/20 03:04:00;;;;;;;39.70;15.60;;;;;;;-2.63;88.87;100712.38;4485926;31;20112;-68
2022/01/20 03:06:28;;;;;;;36.65;15.10;;;;;;;-2.51;86.96;100697.47;4486053;31;20095;-68
2022/01/20 03:08:55;;;;;;;31.40;13.77;;;;;;;-2.57;86.70;100697.19;4486103;31;20092;-67
2022/01/20 03:11:22;;;;;;;37.10;14.13;;;;;;;-2.63;86.76;100704.63;4486075;31;20091;-68
2022/01/20 03:13:49;;;;;;;31.40;12.82;;;;;;;-2.67;85.88;100684.69;4485966;31;20099;-67
2022/01/20 03:16:17;;;;;;;46.55;15.30;;;;;;;-2.68;86.30;100694.13;4485777;31;20083;-68
2022/01/20 03:18:44;;;;;;;39.70;15.45;;;;;;;-2.81;85.79;100686.62;4486091;31;20088;-68
2022/01/20 03:21:13;;;;;;;43.30;13.70;;;;;;;-2.82;85.34;100689.13;4485874;31;20475;-67
2022/01/20 03:23:41;;;;;;;35.00;15.05;;;;;;;-2.96;86.53;100685.91;4485935;31;20469;-68
2022/01/20 03:26:08;;;;;;;38.30;15.63;;;;;;;-2.84;85.88;100683.00;4485862;31;20112;-68
2022/01/20 03:28:35;;;;;;;37.30;15.45;;;;;;;-2.95;85.98;100673.06;4485857;31;20400;-67
2022/01/20 03:31:02;;;;;;;33.45;13.10;;;;;;;-3.13;87.05;100678.25;4485909;31;20135;-67
2022/01/20 03:33:30;;;;;;;35.30;15.07;;;;;;;-3.12;86.39;100677.44;4471227;31;20266;-67
2022/01/20 03:35:58;;;;;;;42.03;15.77;;;;;;;-3.20;86.94;100670.16;4485883;31;20103;-68
2022/01/20 03:38:28;;;;;;;43.00;16.95;;;;;;;-3.15;86.92;100658.38;4486086;31;20080;-68
2022/01/20 03:40:56;;;;;;;41.55;15.52;;;;;;;-3.08;85.28;100660.41;4485927;31;20127;-67
2022/01/20 03:43:25;;;;;;;43.38;16.37;;;;;;;-3.35;86.79;100662.59;4485886;31;20435;-67
2022/01/20 03:45:56;;;;;;;37.28;15.57;;;;;;;-3.42;86.60;100653.66;4485801;31;20584;-68
2022/01/20 03:48:27;;;;;;;51.40;16.90;;;;;;;-3.39;86.04;100645.22;4485708;31;20072;-67
2022/01/20 03:51:02;;;;;;;44.13;17.30;;;;;;;-3.43;86.61;100645.84;4485893;31;20080;-68
2022/01/20 03:53:32;;;;;;;49.60;17.67;;;;;;;-3.31;85.84;100649.03;4485615;31;20435;-67
2022/01/20 03:55:59;;;;;;;51.58;17.70;;;;;;;-3.28;86.13;100638.00;4485757;31;20107;-67
2022/01/20 03:58:28;;;;;;;47.85;17.95;;;;;;;-3.36;87.08;100635.03;4485761;31;20083;-68
2022/01/20 04:00:56;;;;;;;44.88;16.77;;;;;;;-3.33;87.13;100630.03;4485703;31;20500;-67
2022/01/20 04:03:25;;;;;;;44.97;16.77;;;;;;;-3.30;87.52;100632.75;4485746;31;20092;-67
2022/01/20 04:08:21;;;;;;;39.90;15.50;;;;;;;-3.27;88.37;100629.44;4485801;31;20684;-68
2022/01/20 04:10:48;;;;;;;40.33;15.10;;;;;;;-3.23;88.55;100628.78;4485774;31;20096;-67
2022/01/20 04:13:17;;;;;;;34.13;15.40;;;;;;;-3.17;88.56;100635.09;4485698;31;20096;-67
2022/01/20 04:15:48;;;;;;;46.63;16.45;;;;;;;-3.57;90.78;100634.88;4485441;31;20108;-68
2022/01/20 04:18:23;;;;;;;45.83;16.17;;;;;;;-3.56;90.38;100634.09;4485737;31;20432;-67
2022/01/20 04:20:50;;;;;;;36.58;16.10;;;;;;;-3.53;89.72;100636.81;4485761;31;20102;-67
2022/01/20 04:23:18;;;;;;;48.78;16.48;;;;;;;-3.40;89.71;100636.56;4485637;31;20111;-67
2022/01/20 04:25:46;;;;;;;39.70;14.95;;;;;;;-3.53;90.33;100643.63;4485681;31;20506;-67
2022/01/20 04:28:13;;;;;;;42.58;16.02;;;;;;;-3.45;88.93;100653.53;4485166;31;20153;-67
2022/01/20 04:30:40;;;;;;;47.62;17.20;;;;;;;-3.59;90.12;100654.53;4485292;31;20112;-67
2022/01/20 04:33:08;;;;;;;46.17;18.08;;;;;;;-3.60;91.37;100647.63;4485605;31;20091;-67
2022/01/20 04:35:36;;;;;;;51.35;18.80;;;;;;;-3.80;92.99;100640.63;4485440;31;20116;-67
2022/01/20 04:38:04;;;;;;;49.40;19.77;;;;;;;-3.79;93.93;100638.09;4483769;31;20084;-67
2022/01/20 04:40:37;;;;;;;45.95;19.05;;;;;;;-3.90;94.59;100644.41;4485479;31;20152;-67
2022/01/20 04:43:06;;;;;;;53.08;21.48;;;;;;;-4.03;95.66;100650.63;4485249;31;20096;-67
2022/01/20 04:45:38;;;;;;;50.70;21.65;;;;;;;-4.06;96.29;100660.78;4485426;31;20096;-67
2022/01/20 04:58:59;;;;;;;61.13;24.45;;;;;;;-4.39;98.57;100660.78;4501872;31;20110;-67
2022/01/20 05:01:28;;;;;;;60.20;21.85;;;;;;;-4.47;98.98;100656.06;4501321;31;20754;-67
2022/01/20 05:03:58;;;;;;;61.03;23.95;;;;;;;-4.43;99.23;100658.88;4501019;31;20387;-67
2022/01/20 05:06:27;;;;;;;56.53;22.52;;;;;;;-4.39;98.82;100647.03;4498585;31;20516;-67
2022/01/20 05:08:56;;;;;;;58.97;23.75;;;;;;;-4.57;99.74;100647.84;4500709;31;20118;-67
2022/01/20 05:11:24;;;;;;;60.58;23.80;;;;;;;-4.55;100.00;100640.25;4486675;31;20118;-67
2022/01/20 05:13:51;;;;;;;61.80;22.50;;;;;;;-4.52;99.59;100636.91;4500096;31;20122;-67
2022/01/20 05:16:19;;;;;;;63.05;24.05;;;;;;;-4.60;100.00;100644.22;4500786;31;20497;-67
2022/01/20 05:18:48;;;;;;;52.13;23.45;;;;;;;-4.58;100.00;100637.50;4500591;31;20142;-67
2022/01/20 05:21:16;;;;;;;69.93;24.40;;;;;;;-4.59;100.00;100640.87;4500362;31;20096;-67
2022/01/20 05:23:43;;;;;;;55.78;24.12;;;;;;;-4.68;100.00;100641.25;4500738;31;20131;-67
2022/01/20 05:26:13;;;;;;;57.28;24.65;;;;;;;-4.73;100.00;100636.69;4500597;31;20125;-67
2022/01/20 05:28:41;;;;;;;57.38;25.95;;;;;;;-4.70;100.00;100644.53;4500257;31;20083;-67
2022/01/20 05:31:09;;;;;;;58.28;24.63;;;;;;;-4.57;100.00;100646.97;4500647;31;20096;-67
2022/01/20 05:33:37;;;;;;;65.35;24.63;;;;;;;-4.54;99.69;100647.13;4500674;31;20092;-67
2022/01/20 05:36:04;;;;;;;56.95;23.50;;;;;;;-4.47;98.68;100638.94;4500139;31;20096;-67
2022/01/20 05:38:31;;;;;;;62.30;25.62;;;;;;;-4.72;100.00;100643.59;4500360;31;20129;-67
2022/01/20 05:40:59;;;;;;;62.90;24.73;;;;;;;-4.72;100.00;100633.31;4500815;31;20574;-67
2022/01/20 05:43:26;;;;;;;55.83;23.08;;;;;;;-4.71;100.00;100635.06;4502377;31;20100;-67
2022/01/20 05:45:53;;;;;;;50.03;21.55;;;;;;;-4.71;100.00;100645.34;4502638;31;20119;-67
2022/01/20 05:48:32;;;;;;;54.63;23.17;;;;;;;-4.64;100.00;100640.63;4502610;31;20087;-67
2022/01/20 05:51:04;;;;;;;50.92;22.48;;;;;;;-4.59;100.00;100641.75;4502540;31;20412;-67
2022/01/20 05:53:32;;;;;;;55.17;22.45;;;;;;;-4.66;100.00;100637.09;4502645;31;20092;-67
2022/01/20 05:55:59;;;;;;;52.38;22.73;;;;;;;-4.56;99.78;100641.00;4502612;31;20107;-67
2022/01/20 05:58:29;;;;;;;50.47;20.73;;;;;;;-4.52;99.30;100642.97;4502547;31;20151;-67
2022/01/20 06:00:56;;;;;;;55.65;22.33;;;;;;;-4.46;98.61;100639.81;4502759;31;20190;-67
2022/01/20 06:03:37;;;;;;;50.28;22.33;;;;;;;-4.52;98.59;100640.41;4502120;31;20122;-67
2022/01/20 06:06:08;;;;;;;66.60;25.40;;;;;;;-4.45;98.22;100647.63;4502099;31;20146;-67
2022/01/20 06:08:37;;;;;;;53.00;23.38;;;;;;;-4.37;97.37;100663.47;4502599;31;20079;-67
2022/01/20 06:11:05;;;;;;;60.97;24.00;;;;;;;-4.45;97.62;100651.88;4502263;31;20481;-67
2022/01/20 06:13:33;;;;;;;56.90;25.37;;;;;;;-4.48;97.56;100651.72;4500298;31;20085;-67
2022/01/20 06:16:01;;;;;;;60.85;24.67;;;;;;;-4.35;97.23;100649.88;4492853;31;20092;-67
2022/01/20 06:18:30;;;;;;;58.38;22.95;;;;;;;-4.35;96.70;100643.81;4486297;31;20204;-67
2022/01/20 06:20:58;;;;;;;56.10;23.95;;;;;;;-4.34;96.80;100637.91;4500793;31;20080;-67
2022/01/20 06:23:26;;;;;;;64.15;23.50;;;;;;;-4.39;97.71;100626.47;4489859;31;20096;-67
2022/01/20 06:25:53;;;;;;;61.13;24.15;;;;;;;-4.30;97.51;100623.50;4486165;31;20260;-67
2022/01/20 06:28:21;;;;;;;57.70;23.50;;;;;;;-4.15;97.21;100622.59;4489598;31;20183;-67
2022/01/20 06:30:50;;;;;;;54.85;22.62;;;;;;;-4.18;97.20;100624.13;4502181;31;20229;-67
2022/01/20 06:33:17;;;;;;;62.20;24.27;;;;;;;-4.12;97.34;100627.00;4502081;31;20096;-67
2022/01/20 06:35:47;;;;;;;63.38;23.73;;;;;;;-3.93;96.49;100634.84;4502101;31;20561;-67
2022/01/20 06:38:15;;;;;;;55.75;24.00;;;;;;;-3.86;96.40;100643.75;4502132;31;20109;-67
2022/01/20 06:40:43;;;;;;;59.22;23.98;;;;;;;-3.89;96.35;100639.34;4494443;31;20148;-67
2022/01/20 06:43:11;;;;;;;67.60;25.62;;;;;;;-3.68;95.45;100643.78;4486443;31;20423;-67
2022/01/20 06:45:39;;;;;;;64.22;24.12;;;;;;;-3.82;95.61;100631.91;4486573;31;20115;-67
2022/01/20 06:48:07;;;;;;;57.97;24.02;;;;;;;-3.75;95.33;100642.59;4486027;31;20083;-67
2022/01/20 06:50:35;;;;;;;57.92;23.85;;;;;;;-3.73;95.43;100643.56;4485946;31;20092;-67
2022/01/20 06:53:03;;;;;;;46.22;23.27;;;;;;;-3.63;94.54;100632.03;4485610;31;20444;-67
2022/01/20 06:55:30;;;;;;;59.72;24.10;;;;;;;-3.45;94.29;100621.72;4491089;31;20112;-66
2022/01/20 06:57:57;;;;;;;71.85;28.90;;;;;;;-3.57;94.51;100616.84;4487316;31;20087;-66
2022/01/20 07:00:25;;;;;;;71.03;29.23;;;;;;;-3.42;93.80;100622.75;4488205;31;20200;-66
2022/01/20 07:02:53;;;;;;;81.28;31.70;;;;;;;-3.34;93.35;100617.09;4502246;31;20539;-66
2022/01/20 07:05:22;;;;;;;73.07;29.40;;;;;;;-3.25;93.07;100608.09;4502327;31;20186;-68
2022/01/20 07:07:50;;;;;;;74.40;27.48;;;;;;;-3.12;92.41;100596.66;4502221;31;20105;-67
2022/01/20 07:10:19;;;;;;;86.72;29.87;;;;;;;-3.10;92.04;100600.19;4502577;31;20103;-66
2022/01/20 07:12:48;;;;;;;65.30;28.23;;;;;;;-3.17;92.46;100599.03;4502370;31;20104;-64
2022/01/20 07:15:17;;;;;;;77.53;27.40;;;;;;;-3.10;92.35;100605.34;4499116;31;20163;-66
2022/01/20 07:17:45;;;;;;;67.22;24.45;;;;;;;-2.96;91.59;100599.13;4486703;31;20118;-66
2022/01/20 07:20:14;;;;;;;68.93;24.40;;;;;;;-2.79;90.99;100599.00;4486551;31;20110;-66
2022/01/20 07:22:43;;;;;;;60.85;25.52;;;;;;;-2.77;90.82;100595.69;4486667;31;20152;-65
2022/01/20 07:25:11;;;;;;;57.50;23.12;;;;;;;-2.61;90.48;100581.78;4486865;31;20167;-67
2022/01/20 07:27:40;;;;;;;42.15;21.20;;;;;;;-2.41;89.42;100580.94;4486558;31;20637;-67
2022/01/20 07:30:28;;;;;;;55.75;21.77;;;;;;;-2.30;89.29;100578.81;4486653;31;20152;-66
2022/01/20 07:32:55;;;;;;;51.90;19.70;;;;;;;-2.29;89.08;100578.03;4486557;31;20100;-66
2022/01/20 07:35:23;;;;;;;55.83;20.20;;;;;;;-2.27;88.54;100584.09;4486529;31;20126;-66
2022/01/20 07:37:50;;;;;;;55.28;19.05;;;;;;;-2.40;89.60;100571.53;4486143;31;20076;-66
2022/01/20 07:40:17;;;;;;;47.90;20.17;;;;;;;-2.28;88.90;100584.06;4486486;31;20516;-66
2022/01/20 07:42:44;;;;;;;38.67;18.77;;;;;;;-2.23;88.81;100577.38;4486306;31;20100;-67
2022/01/20 07:45:17;;;;;;;57.45;20.23;;;;;;;-2.13;88.40;100579.53;4486748;31;20100;-65
2022/01/20 07:47:46;;;;;;;50.28;20.05;;;;;;;-2.21;89.60;100576.63;4486395;31;20117;-67
2022/01/20 07:50:14;;;;;;;50.72;19.30;;;;;;;-2.00;88.78;100576.66;4486005;31;20498;-65
2022/01/20 07:52:43;;;;;;;55.72;21.25;;;;;;;-1.86;89.14;100574.66;4486093;31;20111;-65
2022/01/20 07:55:10;;;;;;;51.92;19.05;;;;;;;-1.97;89.32;100573.31;4471855;31;20220;-65
2022/01/20 07:57:38;;;;;;;60.28;20.77;;;;;;;-1.86;88.96;100571.19;4486121;31;20152;-66
2022/01/20 08:00:06;;;;;;;56.58;20.02;;;;;;;-1.54;87.18;100567.31;4486448;31;20415;-65
2022/01/20 08:02:42;;;;;;;41.85;19.90;;;;;;;-1.60;87.83;100574.81;4472852;31;20112;-66
2022/01/20 08:05:11;;;;;;;60.63;22.55;;;;;;;-1.28;87.11;100565.72;4485216;31;20505;-66
2022/01/20 08:07:40;;;;;;;40.47;18.83;;;;;;;-1.01;85.76;100568.50;4499019;31;20106;-66
2022/01/20 08:10:08;;;;;;;45.72;17.50;;;;;;;-1.04;84.70;100568.38;4501959;31;20087;-66
2022/01/20 08:12:37;;;;;;;44.28;17.95;;;;;;;-0.77;84.13;100573.69;4501997;31;20084;-66
2022/01/20 08:15:05;;;;;;;41.80;17.05;;;;;;;-0.59;82.77;100576.06;4498598;31;20184;-66
2022/01/20 08:17:33;;;;;;;46.58;19.02;;;;;;;-0.42;82.98;100576.69;4486533;31;20118;-67
2022/01/20 08:20:00;;;;;;;47.67;19.80;;;;;;;0.02;81.39;100573.03;4492430;31;20771;-69
2022/01/20 08:22:33;;;;;;;32.10;15.98;;;;;;;0.47;79.24;100581.41;4493579;31;20088;-68
2022/01/20 08:25:13;;;;;;;40.25;17.90;;;;;;;0.77;78.58;100578.00;4495511;31;20108;-69
2022/01/20 08:27:42;;;;;;;40.92;19.45;;;;;;;0.91;77.21;100573.25;4496928;31;20085;-67
2022/01/20 08:30:13;;;;;;;40.15;18.00;;;;;;;0.93;76.87;100575.06;4493213;31;20084;-67
2022/01/20 08:32:41;;;;;;;50.90;19.27;;;;;;;0.99;76.83;100578.66;4493070;31;20163;-67
2022/01/20 08:35:14;;;;;;;45.05;19.80;;;;;;;0.66;77.31;100576.81;4490192;31;20163;-68
2022/01/20 08:37:45;;;;;;;48.40;20.25;;;;;;;0.65;78.41;100575.94;4492589;31;20092;-68
2022/01/20 08:40:15;;;;;;;45.33;19.02;;;;;;;0.41;78.90;100575.16;4496823;31;20122;-66
2022/01/20 08:42:46;;;;;;;46.37;18.00;;;;;;;0.68;79.66;100575.16;4495158;31;20092;-67
2022/01/20 08:45:16;;;;;;;44.30;19.02;;;;;;;0.93;78.38;100574.19;4492439;31;20087;-65
2022/01/20 08:47:44;;;;;;;46.35;19.90;;;;;;;1.12;77.41;100560.03;4494050;31;20125;-66
2022/01/20 08:50:12;;;;;;;56.20;21.85;;;;;;;1.13;77.76;100557.50;4492085;31;20721;-67
2022/01/20 08:52:45;;;;;;;44.63;20.58;;;;;;;1.27;78.21;100554.38;4485882;31;20134;-65
2022/01/20 08:55:13;;;;;;;46.33;19.58;;;;;;;1.06;78.65;100546.88;4491639;31;20491;-66
2022/01/20 08:57:41;;;;;;;38.83;17.40;;;;;;;1.08;78.75;100556.47;4494451;31;20087;-65
2022/01/20 09:00:10;;;;;;;44.08;19.00;;;;;;;0.95;80.00;100549.16;4491020;31;20781;-66
2022/01/20 09:02:47;;;;;;;40.12;15.98;;;;;;;0.82;80.80;100560.91;4487616;31;20282;-67
2022/01/20 09:05:15;;;;;;;42.30;17.10;;;;;;;0.86;80.88;100560.16;4487675;31;20099;-66
2022/01/20 09:07:42;;;;;;;37.72;16.15;;;;;;;0.97;80.83;100568.25;4490291;31;20135;-67
2022/01/20 09:10:18;;;;;;;42.33;16.45;;;;;;;1.10;80.68;100556.53;4485470;31;20160;-67
2022/01/20 09:15:28;;;;;;;32.85;14.77;;;;;;;1.17;80.92;100567.13;4499683;31;20166;-69
2022/01/20 09:18:00;;;;;;;38.88;16.10;;;;;;;1.32;79.70;100571.88;4488804;31;20935;-66
2022/01/20 09:20:28;;;;;;;39.60;16.15;;;;;;;1.42;78.92;100580.81;4499765;31;20111;-65
2022/01/20 09:22:56;;;;;;;32.83;16.23;;;;;;;1.04;80.03;100584.88;4494303;31;20519;-66
2022/01/20 09:25:27;;;;;;;42.70;16.08;;;;;;;1.11;80.71;100589.41;4496031;31;20103;-68
2022/01/20 09:28:00;;;;;;;36.45;16.45;;;;;;;1.04;80.52;100579.69;4480375;31;20742;-67
2022/01/20 09:30:28;;;;;;;41.33;17.75;;;;;;;0.83;81.78;100577.34;4496848;31;20084;-68
2022/01/20 09:33:10;;;;;;;39.08;17.25;;;;;;;0.81;82.30;100572.06;4487337;31;20487;-67
2022/01/20 09:35:40;;;;;;;43.10;18.23;;;;;;;0.95;82.14;100576.00;4487583;31;20150;-67
2022/01/20 09:38:08;;;;;;;41.28;18.02;;;;;;;1.17;81.27;100581.81;4487253;31;20197;-66
2022/01/20 09:40:42;;;;;;;40.25;17.15;;;;;;;1.01;82.32;100583.06;4487398;31;20114;-66
2022/01/20 09:43:14;;;;;;;43.00;18.05;;;;;;;1.28;81.70;100569.16;4484636;31;20096;-67
2022/01/20 09:45:46;;;;;;;48.35;17.48;;;;;;;1.29;81.64;100561.38;4488256;31;20114;-68
2022/01/20 09:48:13;;;;;;;49.15;18.40;;;;;;;1.37;82.02;100569.37;4487126;31;20092;-67
2022/01/20 09:50:43;;;;;;;47.55;20.10;;;;;;;1.45;81.74;100573.09;4491660;31;20129;-67
2022/01/20 09:53:12;;;;;;;46.78;19.75;;;;;;;1.70;80.69;100566.88;4487468;31;20119;-68
2022/01/20 09:55:40;;;;;;;46.50;19.95;;;;;;;1.91;80.87;100559.63;4487254;31;20087;-67
2022/01/20 09:58:08;;;;;;;59.33;20.73;;;;;;;2.08;80.12;100564.34;4487150;31;20100;-68
2022/01/20 10:00:38;;;;;;;42.53;20.40;;;;;;;2.07;79.58;100562.59;4487307;31;20114;-68
2022/01/20 10:03:09;;;;;;;49.72;20.23;;;;;;;2.18;79.85;100561.16;4487172;31;20470;-67
2022/01/20 10:05:43;;;;;;;46.83;18.67;;;;;;;2.15;80.10;100558.47;4472509;31;20119;-68
2022/01/20 10:08:17;;;;;;;47.05;19.87;;;;;;;2.49;78.72;100552.37;4487363;31;20157;-66
2022/01/20 10:10:55;;;;;;;46.05;19.17;;;;;;;2.53;82.88;100555.94;4486984;31;20113;-66
2022/01/20 10:13:32;;;;;;;49.95;19.87;;;;;;;2.72;79.04;100547.72;4487175;31;20148;-66
2022/01/20 10:16:03;;;;;;;46.08;21.75;;;;;;;2.95;77.96;100545.59;4497757;31;20431;-65
2022/01/20 10:18:33;;;;;;;52.65;22.20;;;;;;;2.97;77.07;100548.22;4489883;31;20159;-66
2022/01/20 10:21:05;;;;;;;56.13;22.75;;;;;;;3.10;77.20;100550.25;4502903;31;20195;-67
2022/01/20 10:23:40;;;;;;;60.33;23.58;;;;;;;2.94;77.68;100549.06;4503239;31;20438;-66
2022/01/20 10:26:11;;;;;;;56.53;22.62;;;;;;;3.17;77.66;100536.50;4494691;31;20168;-67
2022/01/20 10:29:12;;;;;;;54.10;22.83;;;;;;;3.27;77.72;100528.03;4487119;31;20164;-66
2022/01/20 10:31:41;;;;;;;31.77;15.35;;;;;;;3.47;77.92;100523.22;4460027;31;20866;-67
2022/01/20 10:34:30;;;;;;;34.25;13.98;;;;;;;3.53;79.00;100525.94;4502872;31;20691;-67
2022/01/20 10:37:14;;;;;;;28.70;13.70;;;;;;;3.62;79.80;100514.81;4503154;31;20761;-67
2022/01/20 10:39:44;;;;;;;36.90;15.27;;;;;;;3.75;81.31;100511.59;4487075;31;20478;-66
2022/01/20 10:42:23;;;;;;;33.40;13.80;;;;;;;3.90;79.15;100510.97;4490688;31;20118;-67
2022/01/20 10:44:56;;;;;;;31.42;12.07;;;;;;;3.94;79.46;100517.97;4501588;31;20096;-67
2022/01/20 10:47:24;;;;;;;20.98;8.13;;;;;;;4.05;79.26;100505.13;4502925;31;20104;-67
2022/01/20 10:49:53;;;;;;;12.37;5.70;;;;;;;4.12;80.91;100504.38;4502506;31;20167;-68
2022/01/20 10:52:23;;;;;;;10.68;5.03;;;;;;;4.01;82.57;100501.59;4502447;31;20087;-67
2022/01/20 10:54:53;;;;;;;8.20;4.72;;;;;;;3.97;83.56;100499.78;4476312;31;20100;-67
2022/01/20 10:57:28;;;;;;;7.10;4.20;;;;;;;3.89;85.08;100493.59;4492480;31;20115;-68
2022/01/20 10:59:59;;;;;;;7.45;3.78;;;;;;;3.80;86.06;100489.06;4500599;31;20075;-68
2022/01/20 11:02:29;;;;;;;6.90;4.72;;;;;;;3.87;86.33;100484.84;4490070;31;20110;-66
2022/01/20 11:04:59;;;;;;;5.90;4.05;;;;;;;3.76;87.47;100491.59;4494537;31;20100;-68
2022/01/20 11:07:28;;;;;;;7.18;4.15;;;;;;;3.67;86.79;100483.63;4493730;31;20180;-68
2022/01/20 11:10:02;;;;;;;9.00;4.57;;;;;;;3.60;87.40;100469.59;4493811;31;20091;-67
2022/01/20 11:12:34;;;;;;;5.78;3.62;;;;;;;3.76;86.94;100462.94;4495584;31;20083;-68
2022/01/20 11:15:08;;;;;;;8.48;4.75;;;;;;;3.88;86.08;100459.66;4493845;31;20096;-67
2022/01/20 11:17:40;;;;;;;6.62;4.07;;;;;;;4.07;85.30;100457.37;4498939;31;20126;-65
2022/01/20 11:20:08;;;;;;;14.10;4.75;;;;;;;4.20;84.23;100449.72;4485468;31;20102;-65
2022/01/20 11:22:36;;;;;;;9.90;4.72;;;;;;;4.27;83.97;100449.84;4488345;31;20092;-65
2022/01/20 11:25:08;;;;;;;9.60;4.90;;;;;;;4.44;82.83;100454.41;4496411;31;20080;-66
2022/01/20 11:27:42;;;;;;;10.30;4.90;;;;;;;4.42;83.00;100458.75;4502331;31;20091;-66
2022/01/20 11:30:19;;;;;;;7.50;4.62;;;;;;;4.39;83.13;100456.97;4501221;31;20155;-65
2022/01/20 11:33:01;;;;;;;7.85;4.15;;;;;;;4.22;83.32;100448.91;4501779;31;20527;-66
2022/01/20 11:35:56;;;;;;;5.68;3.58;;;;;;;4.18;81.70;100460.16;4496049;31;20152;-68
2022/01/20 11:38:37;;;;;;;5.37;3.42;;;;;;;3.99;82.81;100424.19;4488403;31;20126;-67
2022/01/20 11:41:05;;;;;;;7.28;4.10;;;;;;;4.05;83.28;100400.84;4492850;31;20087;-66
2022/01/20 11:43:41;;;;;;;7.15;4.35;;;;;;;4.09;83.32;100394.81;4493045;31;20099;-65
2022/01/20 11:46:15;;;;;;;7.95;4.47;;;;;;;4.02;83.29;100398.19;4490686;31;20204;-66
2022/01/20 11:48:52;;;;;;;6.93;4.20;;;;;;;3.96;83.40;100380.72;4478970;31;20559;-66
2022/01/20 11:51:21;;;;;;;7.20;4.00;;;;;;;4.06;83.62;100371.28;4493632;31;20088;-68
2022/01/20 11:54:03;;;;;;;11.05;3.92;;;;;;;4.16;83.23;100391.44;4490044;31;20968;-67
2022/01/20 11:56:36;;;;;;;6.65;3.50;;;;;;;4.13;82.92;100380.94;4489136;31;20159;-67
2022/01/20 11:59:05;;;;;;;6.40;3.70;;;;;;;3.97;83.51;100371.19;4490575;31;20235;-67
2022/01/20 12:02:02;;;;;;;5.93;3.95;;;;;;;4.07;83.64;100383.50;4491133;31;20091;-67
2022/01/20 12:04:41;;;;;;;7.73;3.23;;;;;;;4.04;82.91;100363.47;4478292;31;20572;-68
2022/01/20 12:07:10;;;;;;;5.97;3.72;;;;;;;4.08;82.35;100369.59;4491896;31;20176;-68
2022/01/20 12:09:40;;;;;;;7.43;3.87;;;;;;;4.27;82.17;100368.09;4489874;31;20167;-67
2022/01/20 12:12:22;;;;;;;6.60;3.95;;;;;;;4.29;81.49;100361.19;4491996;31;20702;-67
2022/01/20 12:14:49;;;;;;;11.20;3.58;;;;;;;4.26;81.48;100356.81;4492211;31;20091;-67
2022/01/20 12:17:17;;;;;;;6.47;3.92;;;;;;;4.22;80.74;100349.78;4491293;31;20446;-67
2022/01/20 12:19:54;;;;;;;7.50;4.18;;;;;;;4.18;80.48;100353.22;4492559;31;20103;-68
2022/01/20 12:22:21;;;;;;;11.23;5.45;;;;;;;4.22;80.50;100351.53;4492021;31;20395;-68
2022/01/20 12:24:55;;;;;;;12.75;5.22;;;;;;;4.25;79.91;100352.44;4492307;31;20592;-68
2022/01/20 12:27:25;;;;;;;8.85;5.15;;;;;;;4.16;80.13;100351.44;4493149;31;20118;-68
2022/01/20 12:29:52;;;;;;;8.82;4.97;;;;;;;4.10;80.47;100341.81;4491808;31;20107;-68
2022/01/20 12:32:21;;;;;;;11.18;5.57;;;;;;;4.20;80.16;100332.37;4492762;31;20526;-68
2022/01/20 12:35:03;;;;;;;12.30;5.90;;;;;;;4.22;79.99;100317.63;4493637;31;20129;-68
2022/01/20 12:37:38;;;;;;;11.98;6.25;;;;;;;4.17;80.23;100316.66;4500763;31;20080;-67
2022/01/20 12:40:22;;;;;;;12.70;5.65;;;;;;;4.11;79.88;100329.66;4500978;31;20250;-67
2022/01/20 12:42:49;;;;;;;10.57;6.57;;;;;;;4.31;79.48;100322.94;4500517;31;20102;-67